Impacts METAR Board
IDs:

KBOS - Boston/Logan Intl, MA, US

Updated at: 2200 UTC 25 May 2018
Potential Impact None Slight Moderate High
Time 25/10Z 25/11Z 25/12Z 25/13Z 25/14Z 25/15Z 25/16Z 25/17Z 25/18Z 25/19Z 25/20Z 25/21Z 25/22Z
Temp57 62 69 73 77 82 84 85 86 87 87 87 87
Dewpt48 48 47 48 49 50 47 45 46 48 46 46 46
Altim29.96 29.95 29.94 29.93 29.90 29.87 29.85 29.82 29.80 29.77 29.76 29.74 29.73
VIS10 10 10 10 10 10 10 10 10 10 10 10 10
CIG-- -- -- -- -- -- 300 300 300 210 210 210 210
CoverFEWSCTSCTFEWFEWFEWBKNBKNBKNBKNBKNOVCBKN
FltCatVFRVFRVFRVFRVFRVFRVFRVFRVFRVFRVFRVFRVFR
WX--------------------------
WDir230240260260260260260280280240250240250
WSpd8 12 14 12 14 15 20 15 13 12 19 15 16
WGst-- -- 20 -- 19 21 25 23 24 -- 23 24 24
Raw hourly METARs
KBOS 250954Z 23008KT 10SM FEW250 14/09 A2996 RMK AO2 SLP144 T01390089
KBOS 251054Z 24012KT 10SM SCT300 17/09 A2995 RMK AO2 SLP141 T01670089
KBOS 251154Z 26014G20KT 10SM SCT300 21/08 A2994 RMK AO2 SLP137 T02060083 10206 20122 58007
KBOS 251254Z 26012KT 10SM FEW300 23/09 A2993 RMK AO2 SLP134 T02280089
KBOS 251354Z 26014G19KT 10SM FEW300 25/09 A2990 RMK AO2 PK WND 26026/1324 SLP125 T02500094
KBOS 251454Z 26015G21KT 10SM FEW300 28/10 A2987 RMK AO2 SLP116 T02780100 58021
KBOS 251554Z 26020G25KT 10SM BKN300 29/08 A2985 RMK AO2 PK WND 28029/1527 SLP107 T02890083
KBOS 251654Z 28015G23KT 10SM BKN300 29/07 A2982 RMK AO2 PK WND 25030/1555 SLP097 T02940072
KBOS 251754Z 28013G24KT 10SM SCT210 BKN300 30/08 A2980 RMK AO2 SLP091 T03000078 10306 20206 56025
KBOS 251854Z 24012KT 10SM FEW110 BKN210 BKN300 31/09 A2977 RMK AO2 PK WND 26029/1822 SLP082 T03060089
KBOS 251954Z 25019G23KT 10SM FEW110 BKN210 BKN300 31/08 A2976 RMK AO2 PK WND 23028/1919 SLP076 T03060078
KBOS 252054Z 24015G24KT 10SM SCT120 BKN210 OVC300 31/08 A2974 RMK AO2 PK WND 22027/2007 SLP069 T03060078 56022
KBOS 252154Z 25016G24KT 10SM SCT120 BKN210 BKN300 31/08 A2973 RMK AO2 PK WND 25027/2127 SLP066 T03060078



Page loaded:  22:20 UTC  |   03:20 PM Pacific  |   04:20 PM Mountain  |   05:20 PM Central  |   06:20 PM Eastern

 

ADVISORIES

FORECASTS

FORECASTS

OBSERVATIONS

USER TOOLS

ABOUT US